Kezdőlap
METAR-TAF:

METAR-TAF

Repülőterek :

Gibraltár, Gibraltár

Gibraltári repülőtér

földrajzi szélesség: 36-09N, földrajzi hosszúság: 005-21W, magasság: 5 m

Jelenlegi meteorológiai megfigyelések

A jelentés 1 órával és 6 perccel ezelõtt készült, 06:50 UTC
Keleti szél 6 kt
Hőmérséklet 14°C
Páratartalom 88%
Légköri nyomás 1027 hPa
Látótávolság 10 km, vagy több
Szakadozott felhőzet 1100 lábon
Szakadozott felhőzet 1500 lábon

METAR: LXGB 240650Z 09006KT 9999 BKN011 BKN015 14/12 Q1027

Idő: 08:56 (07:56 UTC)

Előrejelzés

A jelentés 2 órával és 23 perccel ezelõtt készült, 05:33 UTC
Az előrejelzés 24-én 06 óra UTC és 24-én 15 óra UTC között érvényes
Keleti szél 10 kt
Látótávolság 10 km, vagy több
Szórványos felhőzet 800 lábon
Szakadozott felhőzet 1500 lábon
24-én 06 óra UTC és 24-én 15 óra UTC között ideiglenes
Kevés felhő 800 lábon
Szórványos felhőzet 1500 lábon

TAF: LXGB 240533Z 2406/2415 08010KT 9999 SCT008 BKN015 TEMPO 2406/2415 FEW008 SCT015

Meteorológiai megfigyelések és előrejelzések több, mint 4000 repülőtéren (METAR és TAF jelentéseket).

A térképen piros és sárga pontok jelzik az elérhető meteorológiai állomásokat.

Mozgassa az egeret a pont fölött, hogy megjelenjen az állomás neve.

Azután kattintson az időjárási megfigyelések és előrejelzések megtekintéséhez.

A térkép megváltoztatása: kattintson a fekete keresztel jelölt zöld gombra ráközelítéshez, a vonallal jelölt zöld gombra távolításhoz, vagy a zöld nyilakra a szomszédos térképek eléréséhez.


METAR-TAF: